sensor_id;sensor_type;location;lat;lon;timestamp;P1;durP1;ratioP1;P2;durP2;ratioP2
61840;SDS011;47773;53.174;6.614;2022-12-18T00:01:34;51.72;;;18.50;;
61840;SDS011;47773;53.174;6.614;2022-12-18T00:04:02;56.67;;;20.42;;
61840;SDS011;47773;53.174;6.614;2022-12-18T00:06:33;52.35;;;18.40;;
61840;SDS011;47773;53.174;6.614;2022-12-18T00:09:00;62.78;;;20.27;;
61840;SDS011;47773;53.174;6.614;2022-12-18T00:11:27;61.28;;;20.05;;
61840;SDS011;47773;53.174;6.614;2022-12-18T00:13:55;57.47;;;19.48;;
61840;SDS011;47773;53.174;6.614;2022-12-18T00:16:22;57.90;;;19.38;;
61840;SDS011;47773;53.174;6.614;2022-12-18T00:18:51;61.75;;;19.92;;
61840;SDS011;47773;53.174;6.614;2022-12-18T00:21:18;59.70;;;20.40;;
61840;SDS011;47773;53.174;6.614;2022-12-18T00:23:45;52.70;;;18.67;;
61840;SDS011;47773;53.174;6.614;2022-12-18T00:26:19;59.47;;;19.08;;
61840;SDS011;47773;53.174;6.614;2022-12-18T00:28:53;54.03;;;18.80;;
61840;SDS011;47773;53.174;6.614;2022-12-18T00:31:21;54.88;;;18.48;;
61840;SDS011;47773;53.174;6.614;2022-12-18T00:33:49;55.47;;;19.75;;
61840;SDS011;47773;53.174;6.614;2022-12-18T00:36:19;56.20;;;19.10;;
61840;SDS011;47773;53.174;6.614;2022-12-18T00:38:47;68.90;;;21.75;;
61840;SDS011;47773;53.174;6.614;2022-12-18T00:41:14;67.22;;;21.50;;
61840;SDS011;47773;53.174;6.614;2022-12-18T00:44:01;60.60;;;19.45;;
61840;SDS011;47773;53.174;6.614;2022-12-18T00:46:27;53.95;;;19.63;;
61840;SDS011;47773;53.174;6.614;2022-12-18T00:48:53;60.10;;;20.13;;
61840;SDS011;47773;53.174;6.614;2022-12-18T00:51:20;58.08;;;20.85;;
61840;SDS011;47773;53.174;6.614;2022-12-18T00:53:45;62.47;;;21.75;;
61840;SDS011;47773;53.174;6.614;2022-12-18T00:56:11;59.13;;;20.10;;
61840;SDS011;47773;53.174;6.614;2022-12-18T00:58:37;62.53;;;20.80;;
61840;SDS011;47773;53.174;6.614;2022-12-18T01:01:06;57.33;;;19.25;;
61840;SDS011;47773;53.174;6.614;2022-12-18T01:03:32;60.75;;;19.58;;
61840;SDS011;47773;53.174;6.614;2022-12-18T01:05:58;58.85;;;18.85;;
61840;SDS011;47773;53.174;6.614;2022-12-18T01:08:23;55.30;;;19.02;;
61840;SDS011;47773;53.174;6.614;2022-12-18T01:10:50;52.03;;;20.10;;
61840;SDS011;47773;53.174;6.614;2022-12-18T01:13:15;54.97;;;18.52;;
61840;SDS011;47773;53.174;6.614;2022-12-18T01:15:47;51.67;;;18.90;;
61840;SDS011;47773;53.174;6.614;2022-12-18T01:18:16;61.13;;;19.42;;
61840;SDS011;47773;53.174;6.614;2022-12-18T01:20:42;51.67;;;19.42;;
61840;SDS011;47773;53.174;6.614;2022-12-18T01:23:08;58.28;;;18.80;;
61840;SDS011;47773;53.174;6.614;2022-12-18T01:25:35;54.45;;;19.20;;
61840;SDS011;47773;53.174;6.614;2022-12-18T01:28:01;54.10;;;19.83;;
61840;SDS011;47773;53.174;6.614;2022-12-18T01:30:27;58.10;;;19.48;;
61840;SDS011;47773;53.174;6.614;2022-12-18T01:32:52;57.92;;;19.75;;
61840;SDS011;47773;53.174;6.614;2022-12-18T01:35:18;56.97;;;19.50;;
61840;SDS011;47773;53.174;6.614;2022-12-18T01:37:44;58.35;;;19.40;;
61840;SDS011;47773;53.174;6.614;2022-12-18T01:40:09;56.25;;;19.85;;
61840;SDS011;47773;53.174;6.614;2022-12-18T01:42:35;49.55;;;17.38;;
61840;SDS011;47773;53.174;6.614;2022-12-18T01:50:35;55.92;;;18.83;;
61840;SDS011;47773;53.174;6.614;2022-12-18T01:53:21;56.45;;;20.17;;
61840;SDS011;47773;53.174;6.614;2022-12-18T01:55:49;58.88;;;19.40;;
61840;SDS011;47773;53.174;6.614;2022-12-18T01:58:23;63.53;;;20.38;;
61840;SDS011;47773;53.174;6.614;2022-12-18T02:01:09;53.08;;;19.42;;
61840;SDS011;47773;53.174;6.614;2022-12-18T02:03:35;61.55;;;20.50;;
61840;SDS011;47773;53.174;6.614;2022-12-18T02:06:10;58.75;;;19.25;;
61840;SDS011;47773;53.174;6.614;2022-12-18T02:14:23;55.47;;;19.40;;
61840;SDS011;47773;53.174;6.614;2022-12-18T02:16:59;56.97;;;19.05;;
61840;SDS011;47773;53.174;6.614;2022-12-18T02:27:40;53.30;;;18.77;;
61840;SDS011;47773;53.174;6.614;2022-12-18T02:30:09;62.10;;;19.92;;
61840;SDS011;47773;53.174;6.614;2022-12-18T02:32:37;63.80;;;19.83;;
61840;SDS011;47773;53.174;6.614;2022-12-18T02:35:06;57.45;;;17.63;;
61840;SDS011;47773;53.174;6.614;2022-12-18T02:37:39;61.00;;;19.20;;
61840;SDS011;47773;53.174;6.614;2022-12-18T02:40:08;56.05;;;20.40;;
61840;SDS011;47773;53.174;6.614;2022-12-18T02:42:36;62.97;;;20.50;;
61840;SDS011;47773;53.174;6.614;2022-12-18T02:45:02;58.58;;;20.70;;
61840;SDS011;47773;53.174;6.614;2022-12-18T02:47:29;62.22;;;20.45;;
61840;SDS011;47773;53.174;6.614;2022-12-18T02:52:31;60.97;;;20.52;;
61840;SDS011;47773;53.174;6.614;2022-12-18T03:00:55;69.97;;;21.65;;
61840;SDS011;47773;53.174;6.614;2022-12-18T03:03:31;65.40;;;21.17;;
61840;SDS011;47773;53.174;6.614;2022-12-18T03:06:08;65.03;;;20.17;;
61840;SDS011;47773;53.174;6.614;2022-12-18T03:08:41;59.70;;;21.30;;
61840;SDS011;47773;53.174;6.614;2022-12-18T03:11:10;66.28;;;21.42;;
61840;SDS011;47773;53.174;6.614;2022-12-18T03:13:45;63.58;;;21.35;;
61840;SDS011;47773;53.174;6.614;2022-12-18T03:16:15;64.72;;;21.92;;
61840;SDS011;47773;53.174;6.614;2022-12-18T03:18:49;66.95;;;21.63;;
61840;SDS011;47773;53.174;6.614;2022-12-18T03:21:41;62.45;;;20.83;;
61840;SDS011;47773;53.174;6.614;2022-12-18T03:24:10;73.38;;;23.70;;
61840;SDS011;47773;53.174;6.614;2022-12-18T03:26:36;64.22;;;21.77;;
61840;SDS011;47773;53.174;6.614;2022-12-18T03:29:07;58.60;;;21.30;;
61840;SDS011;47773;53.174;6.614;2022-12-18T03:31:37;68.95;;;22.20;;
61840;SDS011;47773;53.174;6.614;2022-12-18T03:34:11;61.30;;;21.80;;
61840;SDS011;47773;53.174;6.614;2022-12-18T03:36:40;62.67;;;22.05;;
61840;SDS011;47773;53.174;6.614;2022-12-18T03:39:06;65.55;;;23.15;;
61840;SDS011;47773;53.174;6.614;2022-12-18T03:41:32;66.95;;;22.92;;
61840;SDS011;47773;53.174;6.614;2022-12-18T03:44:38;69.13;;;22.00;;
61840;SDS011;47773;53.174;6.614;2022-12-18T03:47:05;67.80;;;21.55;;
61840;SDS011;47773;53.174;6.614;2022-12-18T03:55:17;64.07;;;23.83;;
61840;SDS011;47773;53.174;6.614;2022-12-18T03:57:44;63.53;;;21.98;;
61840;SDS011;47773;53.174;6.614;2022-12-18T04:00:13;64.15;;;20.73;;
61840;SDS011;47773;53.174;6.614;2022-12-18T04:02:43;65.43;;;22.23;;
61840;SDS011;47773;53.174;6.614;2022-12-18T04:05:11;77.15;;;22.90;;
61840;SDS011;47773;53.174;6.614;2022-12-18T04:07:38;77.47;;;23.40;;
61840;SDS011;47773;53.174;6.614;2022-12-18T04:10:05;63.88;;;22.98;;
61840;SDS011;47773;53.174;6.614;2022-12-18T04:12:32;64.85;;;21.27;;
61840;SDS011;47773;53.174;6.614;2022-12-18T04:14:58;58.85;;;22.55;;
61840;SDS011;47773;53.174;6.614;2022-12-18T04:17:24;68.05;;;22.23;;
61840;SDS011;47773;53.174;6.614;2022-12-18T04:19:49;66.03;;;22.38;;
61840;SDS011;47773;53.174;6.614;2022-12-18T04:22:15;64.50;;;21.83;;
61840;SDS011;47773;53.174;6.614;2022-12-18T04:24:41;68.70;;;21.60;;
61840;SDS011;47773;53.174;6.614;2022-12-18T04:27:07;70.20;;;22.38;;
61840;SDS011;47773;53.174;6.614;2022-12-18T04:29:34;66.07;;;21.25;;
61840;SDS011;47773;53.174;6.614;2022-12-18T04:31:59;64.93;;;21.40;;
61840;SDS011;47773;53.174;6.614;2022-12-18T04:34:25;62.22;;;21.15;;
61840;SDS011;47773;53.174;6.614;2022-12-18T04:36:50;67.28;;;22.23;;
61840;SDS011;47773;53.174;6.614;2022-12-18T04:39:17;66.00;;;22.70;;
61840;SDS011;47773;53.174;6.614;2022-12-18T04:41:43;65.47;;;21.83;;
61840;SDS011;47773;53.174;6.614;2022-12-18T04:44:09;71.95;;;22.92;;
61840;SDS011;47773;53.174;6.614;2022-12-18T04:46:34;68.72;;;21.42;;
61840;SDS011;47773;53.174;6.614;2022-12-18T04:49:00;63.97;;;21.88;;
61840;SDS011;47773;53.174;6.614;2022-12-18T04:51:26;69.03;;;21.80;;
61840;SDS011;47773;53.174;6.614;2022-12-18T04:53:51;61.70;;;22.13;;
61840;SDS011;47773;53.174;6.614;2022-12-18T04:56:17;66.07;;;20.65;;
61840;SDS011;47773;53.174;6.614;2022-12-18T04:58:43;78.35;;;22.90;;
61840;SDS011;47773;53.174;6.614;2022-12-18T05:01:09;59.28;;;21.15;;
61840;SDS011;47773;53.174;6.614;2022-12-18T05:03:37;65.75;;;22.15;;
61840;SDS011;47773;53.174;6.614;2022-12-18T05:06:03;65.40;;;21.90;;
61840;SDS011;47773;53.174;6.614;2022-12-18T05:08:30;60.83;;;21.83;;
61840;SDS011;47773;53.174;6.614;2022-12-18T05:11:06;64.63;;;20.52;;
61840;SDS011;47773;53.174;6.614;2022-12-18T05:13:34;63.08;;;22.02;;
61840;SDS011;47773;53.174;6.614;2022-12-18T05:16:01;63.10;;;21.30;;
61840;SDS011;47773;53.174;6.614;2022-12-18T05:18:27;58.10;;;19.85;;
61840;SDS011;47773;53.174;6.614;2022-12-18T05:20:53;58.40;;;21.27;;
61840;SDS011;47773;53.174;6.614;2022-12-18T05:23:20;62.38;;;20.13;;
61840;SDS011;47773;53.174;6.614;2022-12-18T05:25:57;68.15;;;20.83;;
61840;SDS011;47773;53.174;6.614;2022-12-18T05:28:25;57.17;;;20.45;;
61840;SDS011;47773;53.174;6.614;2022-12-18T05:30:55;63.08;;;21.50;;
61840;SDS011;47773;53.174;6.614;2022-12-18T05:33:25;58.25;;;20.15;;
61840;SDS011;47773;53.174;6.614;2022-12-18T05:35:54;56.13;;;21.23;;
61840;SDS011;47773;53.174;6.614;2022-12-18T05:38:21;61.58;;;20.50;;
61840;SDS011;47773;53.174;6.614;2022-12-18T05:40:48;57.40;;;20.67;;
61840;SDS011;47773;53.174;6.614;2022-12-18T05:43:15;57.97;;;20.70;;
61840;SDS011;47773;53.174;6.614;2022-12-18T05:45:41;57.65;;;19.65;;
61840;SDS011;47773;53.174;6.614;2022-12-18T05:48:07;62.28;;;19.55;;
61840;SDS011;47773;53.174;6.614;2022-12-18T05:50:34;57.63;;;19.63;;
61840;SDS011;47773;53.174;6.614;2022-12-18T05:53:04;49.88;;;19.17;;
61840;SDS011;47773;53.174;6.614;2022-12-18T05:55:36;60.47;;;21.55;;
61840;SDS011;47773;53.174;6.614;2022-12-18T05:58:03;54.20;;;19.20;;
61840;SDS011;47773;53.174;6.614;2022-12-18T06:00:31;51.50;;;19.70;;
61840;SDS011;47773;53.174;6.614;2022-12-18T06:02:59;54.70;;;19.42;;
61840;SDS011;47773;53.174;6.614;2022-12-18T06:05:25;64.03;;;20.20;;
61840;SDS011;47773;53.174;6.614;2022-12-18T06:07:51;51.90;;;18.58;;
61840;SDS011;47773;53.174;6.614;2022-12-18T06:10:17;52.60;;;19.55;;
61840;SDS011;47773;53.174;6.614;2022-12-18T06:12:43;47.38;;;17.55;;
61840;SDS011;47773;53.174;6.614;2022-12-18T06:15:09;57.00;;;19.70;;
61840;SDS011;47773;53.174;6.614;2022-12-18T06:17:36;48.55;;;18.83;;
61840;SDS011;47773;53.174;6.614;2022-12-18T06:20:02;65.00;;;20.23;;
61840;SDS011;47773;53.174;6.614;2022-12-18T06:22:30;54.75;;;18.95;;
61840;SDS011;47773;53.174;6.614;2022-12-18T06:24:56;48.33;;;17.75;;
61840;SDS011;47773;53.174;6.614;2022-12-18T06:27:22;52.85;;;17.90;;
61840;SDS011;47773;53.174;6.614;2022-12-18T06:29:48;50.80;;;18.45;;
61840;SDS011;47773;53.174;6.614;2022-12-18T06:32:14;57.63;;;19.08;;
61840;SDS011;47773;53.174;6.614;2022-12-18T06:34:40;62.10;;;19.92;;
61840;SDS011;47773;53.174;6.614;2022-12-18T06:37:05;48.83;;;19.00;;
61840;SDS011;47773;53.174;6.614;2022-12-18T06:39:31;47.20;;;18.67;;
61840;SDS011;47773;53.174;6.614;2022-12-18T06:41:56;54.70;;;19.52;;
61840;SDS011;47773;53.174;6.614;2022-12-18T06:44:22;45.70;;;17.08;;
61840;SDS011;47773;53.174;6.614;2022-12-18T06:46:48;49.00;;;17.63;;
61840;SDS011;47773;53.174;6.614;2022-12-18T06:49:13;52.67;;;18.05;;
61840;SDS011;47773;53.174;6.614;2022-12-18T06:51:41;48.80;;;18.08;;
61840;SDS011;47773;53.174;6.614;2022-12-18T06:54:06;49.50;;;18.17;;
61840;SDS011;47773;53.174;6.614;2022-12-18T06:56:32;54.63;;;19.10;;
61840;SDS011;47773;53.174;6.614;2022-12-18T06:58:58;53.65;;;17.65;;
61840;SDS011;47773;53.174;6.614;2022-12-18T07:01:23;50.15;;;17.63;;
61840;SDS011;47773;53.174;6.614;2022-12-18T07:03:53;52.15;;;18.80;;
61840;SDS011;47773;53.174;6.614;2022-12-18T07:06:20;45.53;;;18.13;;
61840;SDS011;47773;53.174;6.614;2022-12-18T07:08:47;48.22;;;18.17;;
61840;SDS011;47773;53.174;6.614;2022-12-18T07:11:14;52.22;;;18.80;;
61840;SDS011;47773;53.174;6.614;2022-12-18T07:13:41;47.80;;;18.13;;
61840;SDS011;47773;53.174;6.614;2022-12-18T07:16:07;53.03;;;18.65;;
61840;SDS011;47773;53.174;6.614;2022-12-18T07:18:34;51.67;;;18.05;;
61840;SDS011;47773;53.174;6.614;2022-12-18T07:21:04;54.35;;;18.70;;
61840;SDS011;47773;53.174;6.614;2022-12-18T07:23:35;41.20;;;17.08;;
61840;SDS011;47773;53.174;6.614;2022-12-18T07:26:02;52.65;;;18.10;;
61840;SDS011;47773;53.174;6.614;2022-12-18T07:28:28;49.15;;;16.92;;
61840;SDS011;47773;53.174;6.614;2022-12-18T07:30:54;47.58;;;17.33;;
61840;SDS011;47773;53.174;6.614;2022-12-18T07:33:20;50.35;;;17.95;;
61840;SDS011;47773;53.174;6.614;2022-12-18T07:35:45;50.30;;;18.17;;
61840;SDS011;47773;53.174;6.614;2022-12-18T07:38:11;45.92;;;17.80;;
61840;SDS011;47773;53.174;6.614;2022-12-18T07:40:36;47.03;;;16.98;;
61840;SDS011;47773;53.174;6.614;2022-12-18T07:43:02;45.15;;;17.15;;
61840;SDS011;47773;53.174;6.614;2022-12-18T07:45:30;49.63;;;18.13;;
61840;SDS011;47773;53.174;6.614;2022-12-18T07:47:56;52.22;;;18.35;;
61840;SDS011;47773;53.174;6.614;2022-12-18T07:50:22;50.83;;;18.38;;
61840;SDS011;47773;53.174;6.614;2022-12-18T07:52:49;50.78;;;18.10;;
61840;SDS011;47773;53.174;6.614;2022-12-18T07:55:14;50.38;;;17.73;;
61840;SDS011;47773;53.174;6.614;2022-12-18T07:57:40;49.65;;;18.80;;
61840;SDS011;47773;53.174;6.614;2022-12-18T08:00:06;48.38;;;19.00;;
61840;SDS011;47773;53.174;6.614;2022-12-18T08:02:32;53.67;;;19.02;;
61840;SDS011;47773;53.174;6.614;2022-12-18T08:04:57;58.38;;;19.58;;
61840;SDS011;47773;53.174;6.614;2022-12-18T08:07:23;50.95;;;19.00;;
61840;SDS011;47773;53.174;6.614;2022-12-18T08:09:49;56.55;;;20.23;;
61840;SDS011;47773;53.174;6.614;2022-12-18T08:12:14;47.53;;;17.05;;
61840;SDS011;47773;53.174;6.614;2022-12-18T08:14:40;49.80;;;18.30;;
61840;SDS011;47773;53.174;6.614;2022-12-18T08:17:06;56.65;;;20.30;;
61840;SDS011;47773;53.174;6.614;2022-12-18T08:19:31;52.47;;;18.58;;
61840;SDS011;47773;53.174;6.614;2022-12-18T08:21:57;62.97;;;21.48;;
61840;SDS011;47773;53.174;6.614;2022-12-18T08:24:22;58.50;;;20.65;;
61840;SDS011;47773;53.174;6.614;2022-12-18T08:26:48;63.55;;;20.98;;
61840;SDS011;47773;53.174;6.614;2022-12-18T08:29:14;52.53;;;19.60;;
61840;SDS011;47773;53.174;6.614;2022-12-18T08:31:39;54.30;;;19.23;;
61840;SDS011;47773;53.174;6.614;2022-12-18T08:34:05;62.25;;;20.85;;
61840;SDS011;47773;53.174;6.614;2022-12-18T08:36:30;49.80;;;19.13;;
61840;SDS011;47773;53.174;6.614;2022-12-18T08:38:56;53.38;;;20.42;;
61840;SDS011;47773;53.174;6.614;2022-12-18T08:41:22;55.40;;;20.65;;
61840;SDS011;47773;53.174;6.614;2022-12-18T08:43:48;57.88;;;19.98;;
61840;SDS011;47773;53.174;6.614;2022-12-18T08:46:34;57.40;;;20.70;;
61840;SDS011;47773;53.174;6.614;2022-12-18T08:49:02;56.90;;;20.90;;
61840;SDS011;47773;53.174;6.614;2022-12-18T08:51:28;56.70;;;21.83;;
61840;SDS011;47773;53.174;6.614;2022-12-18T08:53:54;63.88;;;21.92;;
61840;SDS011;47773;53.174;6.614;2022-12-18T08:56:20;56.30;;;21.13;;
61840;SDS011;47773;53.174;6.614;2022-12-18T08:58:45;62.65;;;22.52;;
61840;SDS011;47773;53.174;6.614;2022-12-18T09:01:11;57.70;;;22.58;;
61840;SDS011;47773;53.174;6.614;2022-12-18T09:03:38;54.38;;;21.35;;
61840;SDS011;47773;53.174;6.614;2022-12-18T09:06:04;59.97;;;22.52;;
61840;SDS011;47773;53.174;6.614;2022-12-18T09:08:30;61.70;;;23.25;;
61840;SDS011;47773;53.174;6.614;2022-12-18T09:10:59;60.65;;;21.88;;
61840;SDS011;47773;53.174;6.614;2022-12-18T09:13:24;66.53;;;24.13;;
61840;SDS011;47773;53.174;6.614;2022-12-18T09:15:51;61.45;;;23.48;;
61840;SDS011;47773;53.174;6.614;2022-12-18T09:18:19;59.50;;;21.67;;
61840;SDS011;47773;53.174;6.614;2022-12-18T09:20:46;67.68;;;23.90;;
61840;SDS011;47773;53.174;6.614;2022-12-18T09:23:12;60.40;;;22.83;;
61840;SDS011;47773;53.174;6.614;2022-12-18T09:25:38;52.35;;;19.75;;
61840;SDS011;47773;53.174;6.614;2022-12-18T09:28:05;68.22;;;21.83;;
61840;SDS011;47773;53.174;6.614;2022-12-18T09:30:37;64.07;;;22.35;;
61840;SDS011;47773;53.174;6.614;2022-12-18T09:33:03;64.50;;;21.58;;
61840;SDS011;47773;53.174;6.614;2022-12-18T09:35:28;63.75;;;22.00;;
61840;SDS011;47773;53.174;6.614;2022-12-18T09:37:54;60.75;;;21.60;;
61840;SDS011;47773;53.174;6.614;2022-12-18T09:40:21;60.88;;;21.38;;
61840;SDS011;47773;53.174;6.614;2022-12-18T09:42:52;60.72;;;21.17;;
61840;SDS011;47773;53.174;6.614;2022-12-18T09:45:22;48.67;;;20.80;;
61840;SDS011;47773;53.174;6.614;2022-12-18T09:47:49;51.53;;;20.33;;
61840;SDS011;47773;53.174;6.614;2022-12-18T09:50:32;57.22;;;18.70;;
61840;SDS011;47773;53.174;6.614;2022-12-18T09:53:04;51.17;;;18.65;;
61840;SDS011;47773;53.174;6.614;2022-12-18T09:55:40;53.33;;;19.30;;
61840;SDS011;47773;53.174;6.614;2022-12-18T10:00:35;50.42;;;18.38;;
61840;SDS011;47773;53.174;6.614;2022-12-18T10:03:03;49.72;;;18.67;;
61840;SDS011;47773;53.174;6.614;2022-12-18T10:05:37;50.55;;;19.05;;
61840;SDS011;47773;53.174;6.614;2022-12-18T10:08:36;56.17;;;21.58;;
61840;SDS011;47773;53.174;6.614;2022-12-18T10:14:25;51.55;;;18.08;;
61840;SDS011;47773;53.174;6.614;2022-12-18T10:19:55;58.00;;;20.88;;
61840;SDS011;47773;53.174;6.614;2022-12-18T10:22:34;50.03;;;19.10;;
61840;SDS011;47773;53.174;6.614;2022-12-18T10:28:09;54.28;;;19.60;;
61840;SDS011;47773;53.174;6.614;2022-12-18T10:30:38;54.78;;;18.13;;
61840;SDS011;47773;53.174;6.614;2022-12-18T10:33:05;59.08;;;21.23;;
61840;SDS011;47773;53.174;6.614;2022-12-18T10:35:30;51.72;;;19.23;;
61840;SDS011;47773;53.174;6.614;2022-12-18T10:38:00;47.60;;;16.98;;
61840;SDS011;47773;53.174;6.614;2022-12-18T10:43:30;55.50;;;17.65;;
61840;SDS011;47773;53.174;6.614;2022-12-18T10:46:04;47.33;;;16.55;;
61840;SDS011;47773;53.174;6.614;2022-12-18T10:48:54;59.38;;;17.48;;
61840;SDS011;47773;53.174;6.614;2022-12-18T10:54:22;45.47;;;15.02;;
61840;SDS011;47773;53.174;6.614;2022-12-18T10:56:43;46.35;;;15.50;;
61840;SDS011;47773;53.174;6.614;2022-12-18T10:59:10;43.47;;;15.68;;
61840;SDS011;47773;53.174;6.614;2022-12-18T11:01:51;47.20;;;15.88;;
61840;SDS011;47773;53.174;6.614;2022-12-18T11:04:25;39.72;;;16.20;;
61840;SDS011;47773;53.174;6.614;2022-12-18T11:07:00;44.15;;;15.60;;
61840;SDS011;47773;53.174;6.614;2022-12-18T11:09:37;41.97;;;15.93;;
61840;SDS011;47773;53.174;6.614;2022-12-18T11:14:46;45.03;;;15.88;;
61840;SDS011;47773;53.174;6.614;2022-12-18T11:17:33;42.40;;;15.32;;
61840;SDS011;47773;53.174;6.614;2022-12-18T11:20:07;41.17;;;13.90;;
61840;SDS011;47773;53.174;6.614;2022-12-18T11:22:44;42.15;;;15.98;;
61840;SDS011;47773;53.174;6.614;2022-12-18T11:25:27;60.47;;;16.80;;
61840;SDS011;47773;53.174;6.614;2022-12-18T11:32:58;53.65;;;17.70;;
61840;SDS011;47773;53.174;6.614;2022-12-18T11:35:41;42.83;;;15.38;;
61840;SDS011;47773;53.174;6.614;2022-12-18T11:38:27;47.13;;;16.10;;
61840;SDS011;47773;53.174;6.614;2022-12-18T11:40:58;45.25;;;15.65;;
61840;SDS011;47773;53.174;6.614;2022-12-18T11:46:26;48.00;;;15.77;;
61840;SDS011;47773;53.174;6.614;2022-12-18T11:49:01;36.53;;;14.20;;
61840;SDS011;47773;53.174;6.614;2022-12-18T11:51:35;32.92;;;13.45;;
61840;SDS011;47773;53.174;6.614;2022-12-18T11:54:11;40.42;;;15.23;;
61840;SDS011;47773;53.174;6.614;2022-12-18T12:11:11;32.10;;;12.85;;
61840;SDS011;47773;53.174;6.614;2022-12-18T12:21:35;31.63;;;11.90;;
61840;SDS011;47773;53.174;6.614;2022-12-18T12:37:50;30.27;;;11.88;;
61840;SDS011;47773;53.174;6.614;2022-12-18T12:40:20;26.73;;;10.32;;
61840;SDS011;47773;53.174;6.614;2022-12-18T12:42:55;35.77;;;12.87;;
61840;SDS011;47773;53.174;6.614;2022-12-18T12:45:41;31.65;;;11.25;;
61840;SDS011;47773;53.174;6.614;2022-12-18T12:48:42;29.00;;;11.85;;
61840;SDS011;47773;53.174;6.614;2022-12-18T12:53:48;27.88;;;10.02;;
61840;SDS011;47773;53.174;6.614;2022-12-18T12:56:15;27.45;;;11.43;;
61840;SDS011;47773;53.174;6.614;2022-12-18T12:59:45;29.75;;;11.63;;
61840;SDS011;47773;53.174;6.614;2022-12-18T13:07:19;33.58;;;12.35;;
61840;SDS011;47773;53.174;6.614;2022-12-18T13:10:14;27.45;;;10.77;;
61840;SDS011;47773;53.174;6.614;2022-12-18T13:15:37;27.63;;;10.45;;
61840;SDS011;47773;53.174;6.614;2022-12-18T13:20:34;32.53;;;10.55;;
61840;SDS011;47773;53.174;6.614;2022-12-18T13:23:00;26.63;;;10.73;;
61840;SDS011;47773;53.174;6.614;2022-12-18T13:25:27;32.13;;;12.20;;
61840;SDS011;47773;53.174;6.614;2022-12-18T13:40:53;24.20;;;10.20;;
61840;SDS011;47773;53.174;6.614;2022-12-18T13:45:49;29.77;;;10.85;;
61840;SDS011;47773;53.174;6.614;2022-12-18T13:48:24;32.70;;;10.00;;
61840;SDS011;47773;53.174;6.614;2022-12-18T13:50:53;32.97;;;10.55;;
61840;SDS011;47773;53.174;6.614;2022-12-18T13:53:24;26.45;;;11.15;;
61840;SDS011;47773;53.174;6.614;2022-12-18T13:55:53;31.88;;;11.32;;
61840;SDS011;47773;53.174;6.614;2022-12-18T13:58:19;30.27;;;11.32;;
61840;SDS011;47773;53.174;6.614;2022-12-18T14:00:45;40.15;;;12.18;;
61840;SDS011;47773;53.174;6.614;2022-12-18T14:03:24;29.52;;;11.38;;
61840;SDS011;47773;53.174;6.614;2022-12-18T14:05:52;33.03;;;12.43;;
61840;SDS011;47773;53.174;6.614;2022-12-18T14:08:32;35.22;;;12.35;;
61840;SDS011;47773;53.174;6.614;2022-12-18T14:11:00;32.97;;;12.02;;
61840;SDS011;47773;53.174;6.614;2022-12-18T14:13:29;37.83;;;12.82;;
61840;SDS011;47773;53.174;6.614;2022-12-18T14:16:00;46.38;;;14.25;;
61840;SDS011;47773;53.174;6.614;2022-12-18T14:21:02;35.63;;;12.02;;
61840;SDS011;47773;53.174;6.614;2022-12-18T14:26:26;32.30;;;12.90;;
61840;SDS011;47773;53.174;6.614;2022-12-18T14:28:54;33.70;;;13.30;;
61840;SDS011;47773;53.174;6.614;2022-12-18T14:31:22;36.50;;;14.07;;
61840;SDS011;47773;53.174;6.614;2022-12-18T14:33:50;31.75;;;12.90;;
61840;SDS011;47773;53.174;6.614;2022-12-18T14:36:18;34.85;;;12.88;;
61840;SDS011;47773;53.174;6.614;2022-12-18T14:38:49;32.97;;;12.48;;
61840;SDS011;47773;53.174;6.614;2022-12-18T14:41:20;30.15;;;13.48;;
61840;SDS011;47773;53.174;6.614;2022-12-18T14:43:47;34.92;;;13.10;;
61840;SDS011;47773;53.174;6.614;2022-12-18T14:48:49;31.02;;;12.63;;
61840;SDS011;47773;53.174;6.614;2022-12-18T14:51:15;29.17;;;12.15;;
61840;SDS011;47773;53.174;6.614;2022-12-18T14:53:44;35.50;;;12.85;;
61840;SDS011;47773;53.174;6.614;2022-12-18T14:56:16;31.98;;;12.10;;
61840;SDS011;47773;53.174;6.614;2022-12-18T14:58:50;31.92;;;13.40;;
61840;SDS011;47773;53.174;6.614;2022-12-18T15:03:51;28.10;;;11.93;;
61840;SDS011;47773;53.174;6.614;2022-12-18T15:06:29;32.55;;;12.50;;
61840;SDS011;47773;53.174;6.614;2022-12-18T15:09:01;32.75;;;12.68;;
61840;SDS011;47773;53.174;6.614;2022-12-18T15:11:47;40.10;;;14.40;;
61840;SDS011;47773;53.174;6.614;2022-12-18T15:17:00;39.85;;;13.77;;
61840;SDS011;47773;53.174;6.614;2022-12-18T15:19:37;37.65;;;14.90;;
61840;SDS011;47773;53.174;6.614;2022-12-18T15:22:14;36.67;;;13.77;;
61840;SDS011;47773;53.174;6.614;2022-12-18T15:24:53;37.30;;;14.60;;
61840;SDS011;47773;53.174;6.614;2022-12-18T15:32:35;35.08;;;13.15;;
61840;SDS011;47773;53.174;6.614;2022-12-18T15:37:36;33.28;;;13.77;;
61840;SDS011;47773;53.174;6.614;2022-12-18T15:40:06;33.00;;;13.50;;
61840;SDS011;47773;53.174;6.614;2022-12-18T15:42:33;33.05;;;13.15;;
61840;SDS011;47773;53.174;6.614;2022-12-18T15:45:17;33.05;;;12.32;;
61840;SDS011;47773;53.174;6.614;2022-12-18T15:47:43;34.78;;;13.57;;
61840;SDS011;47773;53.174;6.614;2022-12-18T15:50:09;35.47;;;13.38;;
61840;SDS011;47773;53.174;6.614;2022-12-18T15:52:44;32.78;;;13.40;;
61840;SDS011;47773;53.174;6.614;2022-12-18T15:55:16;37.17;;;13.88;;
61840;SDS011;47773;53.174;6.614;2022-12-18T15:58:01;33.95;;;12.82;;
61840;SDS011;47773;53.174;6.614;2022-12-18T16:00:27;34.70;;;14.90;;
61840;SDS011;47773;53.174;6.614;2022-12-18T16:02:53;42.30;;;16.05;;
61840;SDS011;47773;53.174;6.614;2022-12-18T16:05:19;30.55;;;13.40;;
61840;SDS011;47773;53.174;6.614;2022-12-18T16:07:46;33.58;;;13.88;;
61840;SDS011;47773;53.174;6.614;2022-12-18T16:10:12;34.42;;;13.93;;
61840;SDS011;47773;53.174;6.614;2022-12-18T16:12:38;30.42;;;11.70;;
61840;SDS011;47773;53.174;6.614;2022-12-18T16:15:04;37.90;;;13.02;;
61840;SDS011;47773;53.174;6.614;2022-12-18T16:17:30;28.73;;;12.40;;
61840;SDS011;47773;53.174;6.614;2022-12-18T16:19:56;34.17;;;12.95;;
61840;SDS011;47773;53.174;6.614;2022-12-18T16:22:23;33.47;;;13.50;;
61840;SDS011;47773;53.174;6.614;2022-12-18T16:24:51;39.03;;;14.07;;
61840;SDS011;47773;53.174;6.614;2022-12-18T16:27:18;35.47;;;13.32;;
61840;SDS011;47773;53.174;6.614;2022-12-18T16:29:44;36.22;;;14.25;;
61840;SDS011;47773;53.174;6.614;2022-12-18T16:32:11;31.60;;;13.60;;
61840;SDS011;47773;53.174;6.614;2022-12-18T16:34:40;33.40;;;12.68;;
61840;SDS011;47773;53.174;6.614;2022-12-18T16:37:07;31.83;;;12.90;;
61840;SDS011;47773;53.174;6.614;2022-12-18T16:39:34;37.35;;;13.43;;
61840;SDS011;47773;53.174;6.614;2022-12-18T16:42:05;36.30;;;14.63;;
61840;SDS011;47773;53.174;6.614;2022-12-18T16:44:44;30.33;;;11.90;;
61840;SDS011;47773;53.174;6.614;2022-12-18T16:47:10;37.42;;;12.90;;
61840;SDS011;47773;53.174;6.614;2022-12-18T16:49:36;33.75;;;13.85;;
61840;SDS011;47773;53.174;6.614;2022-12-18T16:52:06;37.38;;;14.23;;
61840;SDS011;47773;53.174;6.614;2022-12-18T16:54:32;35.22;;;14.63;;
61840;SDS011;47773;53.174;6.614;2022-12-18T16:57:00;34.83;;;13.73;;
61840;SDS011;47773;53.174;6.614;2022-12-18T16:59:26;34.28;;;14.70;;
61840;SDS011;47773;53.174;6.614;2022-12-18T17:01:52;30.67;;;13.15;;